Time;durP1;ratioP1;P1;durP2;ratioP2;P2;SDS_P1;SDS_P2;PMS_P1;PMS_P2;Temp;Humidity;BMP_temperature;BMP_pressure;BME280_temperature;BME280_humidity;BME280_pressure;Samples;Min_cycle;Max_cycle;Signal;HPM_P1;HPM_P2
2021/05/28 00:01:48;;;;;;;0.85;0.85;;;7.80;99.90;;;;;;5089132;28;20206;-73
2021/05/28 00:04:14;;;;;;;1.85;1.33;;;7.70;99.90;;;;;;5089055;28;20196;-74
2021/05/28 00:06:40;;;;;;;2.55;0.45;;;7.60;99.90;;;;;;5089094;28;20176;-74
2021/05/28 00:09:06;;;;;;;0.43;0.43;;;7.60;99.90;;;;;;5089142;28;20167;-74
2021/05/28 00:11:32;;;;;;;0.65;0.65;;;7.90;99.90;;;;;;5090102;28;20156;-74
2021/05/28 00:13:58;;;;;;;1.88;1.75;;;7.80;99.90;;;;;;5093001;28;20183;-74
2021/05/28 00:16:25;;;;;;;0.28;0.28;;;8.00;99.90;;;;;;5093027;28;20152;-73
2021/05/28 00:18:54;;;;;;;0.20;0.20;;;8.10;99.90;;;;;;5093113;28;20239;-74
2021/05/28 00:21:20;;;;;;;0.20;0.20;;;8.10;99.90;;;;;;5091562;28;20171;-74
2021/05/28 00:23:47;;;;;;;0.25;0.25;;;8.10;99.90;;;;;;5091403;28;20203;-74
2021/05/28 00:26:13;;;;;;;0.68;0.68;;;8.10;99.90;;;;;;5092807;28;20153;-75
2021/05/28 00:28:39;;;;;;;0.15;0.15;;;8.00;99.90;;;;;;5092876;28;20152;-74
2021/05/28 00:31:05;;;;;;;0.45;0.45;;;8.00;99.90;;;;;;5092787;28;20191;-74
2021/05/28 00:33:31;;;;;;;1.77;1.55;;;7.90;99.90;;;;;;5091314;28;20207;-74
2021/05/28 00:35:57;;;;;;;0.60;0.60;;;7.90;99.90;;;;;;5091318;28;20213;-74
2021/05/28 00:38:23;;;;;;;0.10;0.10;;;7.80;99.90;;;;;;5091289;28;20200;-74
2021/05/28 00:40:49;;;;;;;0.38;0.38;;;7.90;99.90;;;;;;5091275;28;20243;-74
2021/05/28 00:43:15;;;;;;;0.20;0.20;;;7.80;99.90;;;;;;5095493;28;20230;-74
2021/05/28 00:45:41;;;;;;;1.33;1.17;;;7.80;99.90;;;;;;5112957;28;20166;-74
2021/05/28 00:48:07;;;;;;;1.45;0.57;;;7.80;99.90;;;;;;5094529;28;20519;-75
2021/05/28 00:50:34;;;;;;;0.40;0.40;;;7.70;99.90;;;;;;5112774;28;20176;-73
2021/05/28 00:53:00;;;;;;;0.17;0.17;;;7.60;99.90;;;;;;5094318;28;20201;-72
2021/05/28 00:55:27;;;;;;;0.30;0.30;;;7.60;99.90;;;;;;5094490;28;20545;-74
2021/05/28 00:57:57;;;;;;;0.20;0.20;;;7.50;99.90;;;;;;5112606;28;20160;-73
2021/05/28 01:00:27;;;;;;;0.63;0.60;;;7.50;99.90;;;;;;5112543;28;20170;-74
2021/05/28 01:02:55;;;;;;;0.20;0.20;;;7.50;99.90;;;;;;5094032;28;20199;-74
2021/05/28 01:05:21;;;;;;;1.00;1.00;;;7.50;99.90;;;;;;5094181;28;20250;-74
2021/05/28 01:07:48;;;;;;;0.20;0.20;;;7.60;99.90;;;;;;5112493;28;20159;-73
2021/05/28 01:10:14;;;;;;;8.18;0.85;;;7.50;99.90;;;;;;5112355;28;20158;-74
2021/05/28 01:12:42;;;;;;;0.10;0.10;;;7.40;99.90;;;;;;5112134;28;20183;-74
2021/05/28 01:15:09;;;;;;;0.10;0.10;;;7.40;99.90;;;;;;5094116;28;20185;-73
2021/05/28 01:17:35;;;;;;;0.47;0.47;;;7.40;99.90;;;;;;5112240;28;20173;-73
2021/05/28 01:20:03;;;;;;;0.35;0.35;;;7.30;99.90;;;;;;5112280;28;20163;-73
2021/05/28 01:22:29;;;;;;;0.22;0.22;;;7.30;99.90;;;;;;5111922;28;20217;-73
2021/05/28 01:24:55;;;;;;;0.45;0.45;;;7.20;99.90;;;;;;5111483;28;20198;-73
2021/05/28 01:27:21;;;;;;;1.10;1.00;;;7.20;99.90;;;;;;5111979;28;20235;-73
2021/05/28 01:29:48;;;;;;;0.57;0.45;;;7.30;99.90;;;;;;5111979;28;20159;-74
2021/05/28 01:32:15;;;;;;;0.40;0.40;;;7.40;99.90;;;;;;5111956;28;20191;-73
2021/05/28 01:34:41;;;;;;;0.75;0.75;;;7.40;99.90;;;;;;5093641;28;20190;-73
2021/05/28 01:37:07;;;;;;;0.10;0.10;;;7.30;99.90;;;;;;5111841;28;20335;-74
2021/05/28 01:39:32;;;;;;;0.57;0.35;;;7.30;99.90;;;;;;5111856;28;20166;-74
2021/05/28 01:41:58;;;;;;;0.43;0.43;;;7.20;99.90;;;;;;5111684;28;20191;-73
2021/05/28 01:44:25;;;;;;;1.08;1.08;;;7.30;99.90;;;;;;5093206;28;20253;-73
2021/05/28 01:46:51;;;;;;;0.13;0.13;;;7.20;99.90;;;;;;5093579;28;20221;-74
2021/05/28 01:49:17;;;;;;;1.10;1.10;;;7.10;99.90;;;;;;5111727;28;20167;-74
2021/05/28 01:51:50;;;;;;;0.30;0.30;;;7.10;99.90;;;;;;5112535;28;20152;-74
2021/05/28 01:54:18;;;;;;;1.02;1.00;;;7.10;99.90;;;;;;5131704;28;20614;-74
2021/05/28 01:56:47;;;;;;;0.00;0.00;;;7.10;99.90;;;;;;5131889;28;20157;-74
2021/05/28 01:59:24;;;;;;;0.30;0.30;;;7.10;99.90;;;;;;5131873;28;20155;-74
2021/05/28 02:01:51;;;;;;;0.10;0.10;;;7.00;99.90;;;;;;5131733;28;20158;-72
2021/05/28 02:04:19;;;;;;;0.35;0.35;;;7.00;99.90;;;;;;5131580;28;20223;-74
2021/05/28 02:06:45;;;;;;;0.20;0.20;;;7.00;99.90;;;;;;5131682;28;20159;-73
2021/05/28 02:09:11;;;;;;;0.10;0.10;;;6.90;99.90;;;;;;5131625;28;20214;-73
2021/05/28 02:11:37;;;;;;;0.30;0.30;;;6.90;99.90;;;;;;5131592;28;20155;-73
2021/05/28 02:14:05;;;;;;;0.57;0.57;;;6.90;99.90;;;;;;5131708;28;20182;-73
2021/05/28 02:16:33;;;;;;;1.10;1.10;;;6.90;99.90;;;;;;5131388;28;20179;-73
2021/05/28 02:19:00;;;;;;;0.80;0.77;;;7.00;99.90;;;;;;5131461;28;20169;-74
2021/05/28 02:21:28;;;;;;;0.60;0.60;;;7.00;99.90;;;;;;5131452;28;20182;-74
2021/05/28 02:23:54;;;;;;;1.17;0.63;;;6.80;99.90;;;;;;5131176;28;20202;-74
2021/05/28 02:26:20;;;;;;;0.73;0.38;;;6.70;99.90;;;;;;5131270;28;20159;-72
2021/05/28 02:28:45;;;;;;;0.10;0.10;;;6.90;99.90;;;;;;5112941;28;20169;-74
2021/05/28 02:31:11;;;;;;;0.20;0.20;;;6.90;99.90;;;;;;5112833;28;20674;-74
2021/05/28 02:33:38;;;;;;;1.55;0.43;;;6.70;99.90;;;;;;5130707;28;20257;-75
2021/05/28 02:36:05;;;;;;;0.63;0.63;;;6.70;99.90;;;;;;5111597;28;20238;-73
2021/05/28 02:38:32;;;;;;;0.93;0.93;;;6.70;99.90;;;;;;5130957;28;20196;-72
2021/05/28 02:40:58;;;;;;;0.38;0.38;;;6.80;99.90;;;;;;5130877;28;20249;-72
2021/05/28 02:43:25;;;;;;;0.40;0.40;;;6.80;99.90;;;;;;5130462;28;20218;-72
2021/05/28 02:45:52;;;;;;;0.43;0.43;;;6.80;99.90;;;;;;5130685;28;20167;-73
2021/05/28 02:48:19;;;;;;;6.75;1.40;;;6.80;99.90;;;;;;5112333;28;20193;-73
2021/05/28 02:50:46;;;;;;;9.68;0.73;;;6.80;99.90;;;;;;5130724;28;20214;-72
2021/05/28 02:53:12;;;;;;;0.65;0.65;;;6.80;99.90;;;;;;5130481;28;20210;-74
2021/05/28 02:55:38;;;;;;;0.30;0.30;;;6.70;99.90;;;;;;5112160;28;20170;-74
2021/05/28 02:58:05;;;;;;;0.45;0.45;;;6.50;99.90;;;;;;5130513;28;20188;-74
2021/05/28 03:00:31;;;;;;;0.45;0.45;;;6.40;99.90;;;;;;5112212;28;20166;-73
2021/05/28 03:02:58;;;;;;;0.93;0.65;;;6.50;99.90;;;;;;5112052;28;20197;-73
2021/05/28 03:05:24;;;;;;;0.70;0.70;;;6.40;99.90;;;;;;5130429;28;20165;-73
2021/05/28 03:07:49;;;;;;;0.68;0.68;;;6.50;99.90;;;;;;5130441;28;20199;-73
2021/05/28 03:10:16;;;;;;;0.20;0.20;;;6.50;99.90;;;;;;5130383;28;20155;-72
2021/05/28 03:12:43;;;;;;;0.38;0.38;;;6.40;99.90;;;;;;5130194;28;20342;-73
2021/05/28 03:15:10;;;;;;;0.28;0.28;;;6.30;99.90;;;;;;5130086;28;20155;-73
2021/05/28 03:17:40;;;;;;;0.30;0.30;;;6.30;99.90;;;;;;5130158;28;20181;-72
2021/05/28 03:20:16;;;;;;;2.05;1.95;;;6.30;99.90;;;;;;5130318;28;20147;-73
2021/05/28 03:22:42;;;;;;;0.40;0.40;;;6.20;99.90;;;;;;5129941;28;20598;-73
2021/05/28 03:25:11;;;;;;;0.82;0.82;;;6.40;99.90;;;;;;5130129;28;20188;-73
2021/05/28 03:27:38;;;;;;;0.40;0.40;;;6.40;99.90;;;;;;5111759;28;20197;-73
2021/05/28 03:30:07;;;;;;;1.40;1.05;;;6.30;99.90;;;;;;5130207;28;20181;-73
2021/05/28 03:32:33;;;;;;;0.70;0.70;;;6.20;99.90;;;;;;5130092;28;20218;-73
2021/05/28 03:34:59;;;;;;;1.05;1.05;;;6.30;99.90;;;;;;5130010;28;20154;-73
2021/05/28 03:37:25;;;;;;;0.10;0.10;;;6.40;99.90;;;;;;5111683;28;20184;-73
2021/05/28 03:39:52;;;;;;;0.40;0.40;;;6.50;99.90;;;;;;5111265;28;20223;-74
2021/05/28 03:42:19;;;;;;;0.20;0.20;;;6.60;99.90;;;;;;5129896;28;20191;-74
2021/05/28 03:44:48;;;;;;;0.50;0.50;;;6.80;99.90;;;;;;5129524;28;20273;-74
2021/05/28 03:47:15;;;;;;;0.47;0.47;;;6.90;99.90;;;;;;5111092;28;20171;-73
2021/05/28 03:49:42;;;;;;;0.47;0.47;;;7.00;99.90;;;;;;5111399;28;20246;-74
2021/05/28 03:52:11;;;;;;;1.95;1.38;;;7.20;99.90;;;;;;5129723;28;20275;-73
2021/05/28 03:54:37;;;;;;;0.90;0.90;;;7.70;99.90;;;;;;5129957;28;20159;-74
2021/05/28 03:57:04;;;;;;;1.45;1.00;;;8.30;99.90;;;;;;5111428;28;20205;-74
2021/05/28 03:59:30;;;;;;;2.38;1.45;;;8.60;99.90;;;;;;5111051;28;20187;-74
2021/05/28 04:01:56;;;;;;;2.33;1.27;;;8.60;99.90;;;;;;5111240;28;20244;-74
2021/05/28 04:04:23;;;;;;;0.93;0.93;;;8.90;99.90;;;;;;5129394;28;20197;-74
2021/05/28 04:06:49;;;;;;;1.67;1.55;;;9.40;99.90;;;;;;5111473;28;20173;-74
2021/05/28 04:09:15;;;;;;;0.20;0.20;;;9.60;99.90;;;;;;5129894;28;20182;-73
2021/05/28 04:11:40;;;;;;;0.95;0.95;;;9.30;99.90;;;;;;5111073;28;20166;-73
2021/05/28 04:14:06;;;;;;;1.17;1.08;;;9.30;99.90;;;;;;5111137;28;20215;-73
2021/05/28 04:16:32;;;;;;;0.75;0.65;;;9.20;99.90;;;;;;5129543;28;20166;-73
2021/05/28 04:18:58;;;;;;;2.17;1.38;;;9.20;99.90;;;;;;5129582;28;20159;-74
2021/05/28 04:21:24;;;;;;;0.85;0.70;;;9.30;99.90;;;;;;5129286;28;20222;-74
2021/05/28 04:23:50;;;;;;;0.45;0.45;;;9.40;99.90;;;;;;5129125;28;20206;-74
2021/05/28 04:26:16;;;;;;;0.90;0.90;;;8.90;99.90;;;;;;5111098;28;20155;-74
2021/05/28 04:28:42;;;;;;;0.68;0.68;;;8.60;99.90;;;;;;5128796;28;20159;-73
2021/05/28 04:31:08;;;;;;;1.40;1.17;;;8.50;99.90;;;;;;5128791;28;20623;-72
2021/05/28 04:33:34;;;;;;;3.05;0.77;;;8.50;99.90;;;;;;5129244;28;20213;-73
2021/05/28 04:36:00;;;;;;;1.25;0.82;;;9.00;99.90;;;;;;5129290;28;20242;-74
2021/05/28 04:38:26;;;;;;;1.35;1.25;;;9.70;99.90;;;;;;5129113;28;20568;-72
2021/05/28 04:40:53;;;;;;;0.77;0.55;;;10.30;99.90;;;;;;5129097;28;20245;-72
2021/05/28 04:43:21;;;;;;;0.38;0.38;;;10.90;99.90;;;;;;5128704;28;20263;-74
2021/05/28 04:45:46;;;;;;;0.85;0.85;;;11.50;99.90;;;;;;5110829;28;20166;-74
2021/05/28 04:48:12;;;;;;;1.35;0.80;;;11.70;99.90;;;;;;5129153;28;20155;-72
2021/05/28 04:50:39;;;;;;;0.82;0.40;;;12.60;99.90;;;;;;5129023;28;20182;-72
2021/05/28 04:53:07;;;;;;;1.75;1.35;;;13.00;99.90;;;;;;5128819;28;20208;-74
2021/05/28 04:55:34;;;;;;;0.70;0.70;;;13.10;99.90;;;;;;5129258;28;20186;-74
2021/05/28 04:58:00;;;;;;;3.72;2.78;;;12.60;99.90;;;;;;5129202;28;20245;-73
2021/05/28 05:00:27;;;;;;;2.10;2.00;;;12.00;99.90;;;;;;5132909;28;20161;-74
2021/05/28 05:02:54;;;;;;;0.20;0.20;;;12.30;99.90;;;;;;5132637;28;20255;-74
2021/05/28 05:05:20;;;;;;;0.50;0.47;;;12.70;99.90;;;;;;5114129;28;20177;-74
2021/05/28 05:07:47;;;;;;;0.93;0.93;;;13.10;99.90;;;;;;5132519;28;20174;-74
2021/05/28 05:10:14;;;;;;;0.55;0.55;;;13.60;99.90;;;;;;5132703;28;20154;-74
2021/05/28 05:12:40;;;;;;;0.40;0.40;;;14.50;99.90;;;;;;5132132;28;20212;-73
2021/05/28 05:15:08;;;;;;;4.05;1.33;;;15.30;99.90;;;;;;5132481;28;20241;-73
2021/05/28 05:17:34;;;;;;;2.00;1.00;;;15.20;99.90;;;;;;5132016;28;20158;-75
2021/05/28 05:20:00;;;;;;;5.43;1.35;;;15.60;99.90;;;;;;5132228;28;20159;-75
2021/05/28 05:22:26;;;;;;;0.80;0.80;;;16.10;99.90;;;;;;5132209;28;20246;-75
2021/05/28 05:24:53;;;;;;;1.00;0.95;;;15.20;99.90;;;;;;5132116;28;20198;-75
2021/05/28 05:27:19;;;;;;;1.40;1.30;;;14.50;99.90;;;;;;5132441;28;20162;-75
2021/05/28 05:29:44;;;;;;;0.70;0.70;;;14.50;99.90;;;;;;5132131;28;20237;-75
2021/05/28 05:32:11;;;;;;;1.45;1.38;;;14.00;99.90;;;;;;5131898;28;20190;-75
2021/05/28 05:34:37;;;;;;;1.70;0.77;;;14.50;99.90;;;;;;5132102;28;20163;-75
2021/05/28 05:37:03;;;;;;;0.60;0.57;;;14.80;99.90;;;;;;5131951;28;20161;-75
2021/05/28 05:39:31;;;;;;;2.28;1.75;;;15.10;99.90;;;;;;5113410;28;20174;-75
2021/05/28 05:42:00;;;;;;;4.00;1.85;;;15.80;99.90;;;;;;5113551;28;20251;-75
2021/05/28 05:44:26;;;;;;;1.75;0.50;;;16.40;99.90;;;;;;5131242;28;20226;-75
2021/05/28 05:46:52;;;;;;;1.65;1.55;;;17.00;99.90;;;;;;5132051;28;20219;-75
2021/05/28 05:49:18;;;;;;;16.20;2.28;;;17.10;99.90;;;;;;5131900;28;20155;-75
2021/05/28 05:51:44;;;;;;;0.90;0.90;;;17.70;99.90;;;;;;5131588;28;20198;-75
2021/05/28 05:54:10;;;;;;;2.58;1.00;;;18.50;99.90;;;;;;5131575;28;20163;-75
2021/05/28 05:56:36;;;;;;;0.80;0.43;;;19.10;99.90;;;;;;5131737;28;20173;-76
2021/05/28 05:59:03;;;;;;;2.22;1.95;;;20.10;99.90;;;;;;5113129;28;20166;-75
2021/05/28 06:01:28;;;;;;;1.05;1.05;;;20.40;99.90;;;;;;5131645;28;20204;-75
2021/05/28 06:03:54;;;;;;;0.85;0.85;;;19.80;99.90;;;;;;5131418;28;20241;-74
2021/05/28 06:06:20;;;;;;;1.20;1.10;;;20.20;99.90;;;;;;5113058;28;20169;-74
2021/05/28 06:08:46;;;;;;;3.90;1.67;;;20.60;99.90;;;;;;5112941;28;20162;-76
2021/05/28 06:11:12;;;;;;;1.33;1.30;;;21.40;99.90;;;;;;5131306;28;20216;-75
2021/05/28 06:13:38;;;;;;;3.95;2.70;;;21.80;99.90;;;;;;5131351;28;20159;-75
2021/05/28 06:16:05;;;;;;;1.83;1.58;;;22.60;99.90;;;;;;5131365;28;20185;-76
2021/05/28 06:18:30;;;;;;;0.60;0.55;;;23.10;99.90;;;;;;5130944;28;20177;-76
2021/05/28 06:20:57;;;;;;;1.27;1.20;;;23.50;99.90;;;;;;5131121;28;20190;-76
2021/05/28 06:23:23;;;;;;;0.77;0.77;;;23.70;99.90;;;;;;5131158;28;20190;-76
2021/05/28 06:25:49;;;;;;;3.15;0.85;;;23.60;99.90;;;;;;5130961;28;20218;-76
2021/05/28 06:28:15;;;;;;;0.65;0.65;;;23.40;99.90;;;;;;5131031;28;20284;-77
2021/05/28 06:30:41;;;;;;;0.80;0.75;;;23.10;99.90;;;;;;5130879;28;20269;-76
2021/05/28 06:33:08;;;;;;;0.35;0.35;;;23.50;99.90;;;;;;5130766;28;20155;-75
2021/05/28 06:35:37;;;;;;;1.08;0.60;;;23.30;99.90;;;;;;5130989;28;20284;-76
2021/05/28 06:38:04;;;;;;;0.47;0.47;;;23.20;99.90;;;;;;5112490;28;20176;-76
2021/05/28 06:40:31;;;;;;;4.65;0.95;;;23.30;99.90;;;;;;5130824;28;20190;-75
2021/05/28 06:42:56;;;;;;;1.13;1.00;;;23.70;99.90;;;;;;5130485;28;20164;-74
2021/05/28 06:45:22;;;;;;;3.13;1.63;;;23.70;99.90;;;;;;5130708;28;20171;-75
2021/05/28 06:47:49;;;;;;;3.35;1.40;;;23.50;99.90;;;;;;5130879;28;20192;-75
2021/05/28 06:50:16;;;;;;;0.82;0.82;;;23.80;99.90;;;;;;5112328;28;20177;-75
2021/05/28 06:52:44;;;;;;;1.60;1.05;;;23.80;99.90;;;;;;5130477;28;20147;-75
2021/05/28 06:55:11;;;;;;;0.80;0.80;;;24.00;99.90;;;;;;5130369;28;20158;-75
2021/05/28 06:57:37;;;;;;;1.33;1.23;;;23.80;99.90;;;;;;5130536;28;20165;-75
2021/05/28 07:00:07;;;;;;;0.70;0.70;;;24.00;99.90;;;;;;5130506;28;20216;-75
2021/05/28 07:02:34;;;;;;;1.58;0.80;;;24.10;99.90;;;;;;5130214;28;20221;-74
2021/05/28 07:05:00;;;;;;;1.90;1.00;;;24.10;99.90;;;;;;5111957;28;20219;-75
2021/05/28 07:07:26;;;;;;;0.15;0.15;;;24.60;99.90;;;;;;5111984;28;20241;-75
2021/05/28 07:09:52;;;;;;;4.70;1.42;;;25.10;99.90;;;;;;5130321;28;20157;-75
2021/05/28 07:12:18;;;;;;;0.77;0.77;;;26.10;99.90;;;;;;5130246;28;20189;-75
2021/05/28 07:14:43;;;;;;;1.77;1.05;;;25.90;99.90;;;;;;5130282;28;20173;-75
2021/05/28 07:17:09;;;;;;;1.00;0.90;;;24.90;99.90;;;;;;5129828;28;20158;-75
2021/05/28 07:19:36;;;;;;;2.08;1.50;;;24.10;99.90;;;;;;5111999;28;20158;-75
2021/05/28 07:22:02;;;;;;;0.77;0.77;;;24.80;99.90;;;;;;5129318;28;20224;-75
2021/05/28 07:24:28;;;;;;;0.35;0.35;;;24.70;99.90;;;;;;5121689;28;20203;-74
2021/05/28 07:26:54;;;;;;;0.52;0.52;;;25.40;99.90;;;;;;5097962;28;20692;-75
2021/05/28 07:29:20;;;;;;;0.52;0.52;;;26.40;99.90;;;;;;5099723;28;20158;-75
2021/05/28 07:31:47;;;;;;;1.77;0.82;;;27.00;99.90;;;;;;5098856;28;20262;-75
2021/05/28 07:34:13;;;;;;;1.27;1.08;;;27.30;99.90;;;;;;5085361;28;20179;-75
2021/05/28 07:36:39;;;;;;;1.88;1.27;;;26.90;99.90;;;;;;5098970;28;20214;-74
2021/05/28 07:39:06;;;;;;;6.38;0.60;;;26.20;99.90;;;;;;5097716;28;20644;-74
2021/05/28 07:41:32;;;;;;;2.05;1.05;;;25.70;99.90;;;;;;5089870;28;20622;-74
2021/05/28 07:43:58;;;;;;;1.23;0.85;;;25.30;99.90;;;;;;5088812;28;20223;-74
2021/05/28 07:46:24;;;;;;;0.95;0.95;;;25.50;99.90;;;;;;5071074;28;20189;-74
2021/05/28 07:48:50;;;;;;;2.28;0.85;;;24.10;99.90;;;;;;5092366;28;20174;-74
2021/05/28 07:51:16;;;;;;;0.93;0.60;;;23.00;99.90;;;;;;5108092;28;20202;-74
2021/05/28 07:53:43;;;;;;;0.25;0.25;;;23.40;99.90;;;;;;5109141;28;20174;-74
2021/05/28 07:56:09;;;;;;;0.43;0.43;;;24.50;99.90;;;;;;5109242;28;20182;-73
2021/05/28 07:58:35;;;;;;;0.50;0.50;;;26.00;99.90;;;;;;5109145;28;20159;-73
2021/05/28 08:01:01;;;;;;;0.30;0.30;;;26.00;99.90;;;;;;5108514;28;20246;-73
2021/05/28 08:03:28;;;;;;;0.10;0.10;;;24.80;99.90;;;;;;5109199;28;20198;-74
2021/05/28 08:05:54;;;;;;;0.35;0.35;;;24.50;99.90;;;;;;5109057;28;20155;-74
2021/05/28 08:08:22;;;;;;;0.55;0.55;;;23.90;99.90;;;;;;5109073;28;20159;-74
2021/05/28 08:10:49;;;;;;;0.80;0.80;;;23.60;99.90;;;;;;5108348;28;20194;-74
2021/05/28 08:13:15;;;;;;;0.50;0.50;;;24.10;99.90;;;;;;5108743;28;20253;-74
2021/05/28 08:15:41;;;;;;;0.65;0.65;;;23.70;99.90;;;;;;5108617;28;20233;-74
2021/05/28 08:18:07;;;;;;;0.20;0.20;;;24.10;99.90;;;;;;5107481;28;20185;-75
2021/05/28 08:20:33;;;;;;;0.50;0.50;;;25.50;99.90;;;;;;5090389;28;20167;-74
2021/05/28 08:23:00;;;;;;;0.20;0.20;;;25.70;99.90;;;;;;5107959;28;20193;-74
2021/05/28 08:25:27;;;;;;;0.13;0.13;;;25.00;99.90;;;;;;5090752;28;20163;-73
2021/05/28 08:27:54;;;;;;;0.80;0.75;;;25.10;99.90;;;;;;5108668;28;20155;-74
2021/05/28 08:30:20;;;;;;;0.68;0.68;;;26.30;99.90;;;;;;5108363;28;20159;-74
2021/05/28 08:32:47;;;;;;;0.50;0.50;;;26.30;99.90;;;;;;5109502;28;20690;-74
2021/05/28 08:35:14;;;;;;;0.55;0.55;;;27.40;99.90;;;;;;5092754;28;20261;-74
2021/05/28 08:37:40;;;;;;;0.28;0.28;;;28.10;99.90;;;;;;5111427;28;20249;-74
2021/05/28 08:40:07;;;;;;;0.20;0.20;;;28.20;99.90;;;;;;5111993;28;20178;-73
2021/05/28 08:42:34;;;;;;;0.65;0.65;;;28.50;99.90;;;;;;5111944;28;20228;-71
2021/05/28 08:45:00;;;;;;;0.50;0.50;;;28.80;99.90;;;;;;5093653;28;20245;-69
2021/05/28 08:47:27;;;;;;;0.10;0.10;;;27.50;99.90;;;;;;5112151;28;20154;-69
2021/05/28 08:49:56;;;;;;;0.30;0.30;;;27.40;99.90;;;;;;5111876;28;20628;-69
2021/05/28 08:52:22;;;;;;;0.08;0.08;;;27.50;99.90;;;;;;5111780;28;20512;-69
2021/05/28 08:54:49;;;;;;;0.70;0.32;;;28.30;99.90;;;;;;5093625;28;20167;-68
2021/05/28 08:57:18;;;;;;;1.75;0.20;;;26.90;98.90;;;;;;5111880;28;20155;-69
2021/05/28 08:59:49;;;;;;;0.22;0.22;;;24.70;99.90;;;;;;5111956;28;20161;-69
2021/05/28 09:02:35;;;;;;;0.00;0.00;;;23.00;99.90;;;;;;5093326;28;20174;-69
2021/05/28 09:05:08;;;;;;;0.10;0.10;;;21.80;99.90;;;;;;5111946;28;20187;-69
2021/05/28 09:07:34;;;;;;;0.43;0.43;;;22.60;99.90;;;;;;5111739;28;20167;-69
2021/05/28 09:10:00;;;;;;;0.20;0.20;;;22.90;99.90;;;;;;5110558;28;20147;-68
2021/05/28 09:12:27;;;;;;;5.07;0.98;;;21.50;99.90;;;;;;5088420;28;20197;-69
2021/05/28 09:14:54;;;;;;;0.15;0.15;;;20.60;99.90;;;;;;5111997;28;20193;-69
2021/05/28 09:17:21;;;;;;;0.10;0.10;;;21.70;99.90;;;;;;5111864;28;20215;-69
2021/05/28 09:19:53;;;;;;;0.03;0.03;;;22.30;99.90;;;;;;5076834;28;20186;-75
2021/05/28 09:22:21;;;;;;;0.20;0.20;;;22.70;99.90;;;;;;5077677;28;20659;-75
2021/05/28 09:24:47;;;;;;;0.43;0.43;;;23.60;99.90;;;;;;5111277;28;20187;-75
2021/05/28 09:27:26;;;;;;;0.17;0.10;;;23.00;99.90;;;;;;5111611;28;20159;-75
2021/05/28 09:30:06;;;;;;;0.47;0.45;;;21.20;99.90;;;;;;5111754;28;20170;-75
2021/05/28 09:32:33;;;;;;;0.05;0.05;;;20.30;99.90;;;;;;5087118;28;20186;-75
2021/05/28 09:35:00;;;;;;;0.15;0.15;;;20.40;99.90;;;;;;5072671;28;20163;-74
2021/05/28 09:37:37;;;;;;;2.17;0.73;;;20.10;99.90;;;;;;5073314;28;20273;-74
2021/05/28 09:40:18;;;;;;;1.88;0.63;;;18.80;99.90;;;;;;5091054;28;20156;-74
2021/05/28 09:43:00;;;;;;;0.10;0.10;;;18.80;99.90;;;;;;5090724;28;20163;-75
2021/05/28 09:45:38;;;;;;;0.30;0.30;;;18.60;99.90;;;;;;5089863;28;20175;-74
2021/05/28 09:48:13;;;;;;;0.10;0.10;;;18.50;99.90;;;;;;5091024;28;20603;-75
2021/05/28 09:50:44;;;;;;;0.10;0.10;;;18.20;99.90;;;;;;5090780;28;20158;-74
2021/05/28 09:53:33;;;;;;;0.98;0.63;;;17.90;99.90;;;;;;5090691;28;20156;-74
2021/05/28 09:56:19;;;;;;;0.85;0.25;;;17.90;99.90;;;;;;5090245;28;20152;-75
2021/05/28 09:59:00;;;;;;;0.00;0.00;;;18.10;99.90;;;;;;5090478;28;20560;-75
2021/05/28 10:01:27;;;;;;;0.10;0.10;;;18.20;99.90;;;;;;5090528;28;20171;-75
2021/05/28 10:04:07;;;;;;;0.10;0.10;;;18.40;99.90;;;;;;5090340;28;20186;-74
2021/05/28 10:06:38;;;;;;;0.20;0.20;;;18.30;99.90;;;;;;5089741;28;20175;-75
2021/05/28 10:09:06;;;;;;;0.10;0.10;;;18.60;99.90;;;;;;5088237;28;20191;-74
2021/05/28 10:11:33;;;;;;;0.10;0.10;;;18.90;99.90;;;;;;5090089;28;20247;-74
2021/05/28 10:14:00;;;;;;;0.43;0.43;;;19.20;99.90;;;;;;5080819;28;20172;-75
2021/05/28 10:16:26;;;;;;;0.20;0.20;;;19.50;99.90;;;;;;5089165;28;20246;-74
2021/05/28 10:18:54;;;;;;;0.32;0.20;;;19.50;99.90;;;;;;5089537;28;20188;-74
2021/05/28 10:21:21;;;;;;;0.10;0.10;;;19.60;99.90;;;;;;5089442;28;20225;-74
2021/05/28 10:23:48;;;;;;;0.43;0.35;;;19.80;99.90;;;;;;5088124;28;20198;-74
2021/05/28 10:26:17;;;;;;;0.10;0.10;;;20.00;99.90;;;;;;5101908;28;20169;-74
2021/05/28 10:28:46;;;;;;;0.10;0.10;;;20.20;99.90;;;;;;5091656;28;20274;-74
2021/05/28 10:31:13;;;;;;;0.10;0.10;;;20.30;99.90;;;;;;5109700;28;20158;-73
2021/05/28 10:33:48;;;;;;;0.10;0.10;;;20.40;99.90;;;;;;5109606;28;20317;-74
2021/05/28 10:36:40;;;;;;;0.10;0.10;;;20.80;99.90;;;;;;5109785;28;20163;-75
2021/05/28 10:39:11;;;;;;;0.10;0.10;;;21.40;99.90;;;;;;5110274;28;20190;-75
2021/05/28 10:42:10;;;;;;;0.20;0.20;;;21.60;99.90;;;;;;5110137;28;20166;-76
2021/05/28 10:44:45;;;;;;;0.10;0.10;;;21.90;99.90;;;;;;5086228;28;20219;-76
2021/05/28 10:47:14;;;;;;;0.10;0.10;;;21.20;99.90;;;;;;5087778;28;20159;-76
2021/05/28 10:49:44;;;;;;;0.10;0.10;;;20.40;99.90;;;;;;5088188;28;20155;-75
2021/05/28 10:52:14;;;;;;;0.82;0.82;;;20.60;99.90;;;;;;5089631;28;20152;-75
2021/05/28 10:54:52;;;;;;;0.10;0.10;;;20.90;99.90;;;;;;5089485;28;20156;-75
2021/05/28 10:57:24;;;;;;;0.10;0.10;;;20.50;99.90;;;;;;5087943;28;20222;-75
2021/05/28 10:59:53;;;;;;;0.10;0.10;;;20.80;99.90;;;;;;5089100;28;20171;-75
2021/05/28 11:02:46;;;;;;;0.05;0.05;;;20.80;99.90;;;;;;5087237;28;20532;-76
2021/05/28 11:05:13;;;;;;;2.40;0.30;;;20.90;99.90;;;;;;5085547;28;20297;-75
2021/05/28 11:07:43;;;;;;;0.22;0.22;;;20.60;99.90;;;;;;5088639;28;20187;-76
2021/05/28 11:10:39;;;;;;;0.30;0.30;;;20.30;99.90;;;;;;5089124;28;20152;-75
2021/05/28 11:13:22;;;;;;;5.20;0.30;;;19.70;99.90;;;;;;5088816;28;20183;-75
2021/05/28 11:15:59;;;;;;;0.10;0.10;;;19.60;99.90;;;;;;5089521;28;20163;-76
2021/05/28 11:18:31;;;;;;;0.17;0.17;;;19.50;99.90;;;;;;5087026;28;20199;-76
2021/05/28 11:21:19;;;;;;;0.20;0.20;;;19.70;99.90;;;;;;5087848;28;20176;-75
2021/05/28 11:23:49;;;;;;;1.65;0.47;;;20.20;99.90;;;;;;5088992;28;20187;-75
2021/05/28 11:26:22;;;;;;;0.00;0.00;;;20.50;99.90;;;;;;5088707;28;20156;-76
2021/05/28 11:28:58;;;;;;;0.00;0.00;;;21.30;99.90;;;;;;5088324;28;20213;-76
2021/05/28 11:31:28;;;;;;;0.00;0.00;;;22.40;99.90;;;;;;5087792;28;20193;-76
2021/05/28 11:34:00;;;;;;;15.93;0.32;;;23.90;99.90;;;;;;5088971;28;20172;-76
2021/05/28 11:36:33;;;;;;;0.00;0.00;;;25.30;99.90;;;;;;5089075;28;20159;-76
2021/05/28 11:39:01;;;;;;;0.20;0.20;;;25.80;99.40;;;;;;5086765;28;20202;-76
2021/05/28 11:41:47;;;;;;;0.30;0.30;;;24.20;98.80;;;;;;5087650;28;20172;-76
2021/05/28 11:44:16;;;;;;;0.10;0.10;;;24.10;99.90;;;;;;5099341;28;20214;-76
2021/05/28 11:46:44;;;;;;;0.75;0.13;;;23.50;99.90;;;;;;5090989;28;20197;-76
2021/05/28 11:49:10;;;;;;;0.08;0.08;;;22.00;99.90;;;;;;5090736;28;20191;-76
2021/05/28 11:51:37;;;;;;;0.10;0.10;;;21.30;99.90;;;;;;5108553;28;20162;-75
2021/05/28 11:54:25;;;;;;;0.15;0.15;;;21.30;99.90;;;;;;5109069;28;20181;-76
2021/05/28 11:56:55;;;;;;;0.10;0.10;;;21.40;99.90;;;;;;5067852;28;20190;-75
2021/05/28 11:59:22;;;;;;;0.08;0.08;;;20.70;99.90;;;;;;5088643;28;20723;-76
2021/05/28 12:01:47;;;;;;;0.00;0.00;;;20.10;99.90;;;;;;5088201;28;20205;-76
2021/05/28 12:04:19;;;;;;;0.10;0.10;;;19.80;99.90;;;;;;5088365;28;20613;-75
2021/05/28 12:06:45;;;;;;;0.10;0.10;;;19.90;99.90;;;;;;5088616;28;20152;-75
2021/05/28 12:09:11;;;;;;;0.10;0.10;;;20.40;99.90;;;;;;5092395;28;20214;-76
2021/05/28 12:11:37;;;;;;;0.10;0.10;;;20.90;99.90;;;;;;5092107;28;20156;-75
2021/05/28 12:14:03;;;;;;;0.22;0.17;;;21.30;99.90;;;;;;5092557;28;20160;-75
2021/05/28 12:16:28;;;;;;;0.10;0.10;;;21.80;99.90;;;;;;5092634;28;20376;-76
2021/05/28 12:18:54;;;;;;;0.68;0.25;;;21.40;99.90;;;;;;5092527;28;20234;-76
2021/05/28 12:21:25;;;;;;;0.30;0.30;;;20.90;99.90;;;;;;5091956;28;20182;-76
2021/05/28 12:23:56;;;;;;;0.17;0.17;;;21.50;99.90;;;;;;5074471;28;20217;-76
2021/05/28 12:26:23;;;;;;;0.13;0.13;;;21.50;99.90;;;;;;5099011;28;20154;-75
2021/05/28 12:28:52;;;;;;;0.10;0.10;;;21.80;99.90;;;;;;5094043;28;20193;-76
2021/05/28 12:31:29;;;;;;;0.13;0.13;;;21.30;99.90;;;;;;5094439;28;20242;-75
2021/05/28 12:33:56;;;;;;;0.10;0.10;;;20.30;99.90;;;;;;5100983;28;20186;-75
2021/05/28 12:36:27;;;;;;;0.80;0.45;;;20.60;99.90;;;;;;5098375;28;20179;-75
2021/05/28 12:38:53;;;;;;;0.10;0.10;;;20.60;99.90;;;;;;5112840;28;20158;-75
2021/05/28 12:41:26;;;;;;;0.10;0.10;;;20.40;99.90;;;;;;5112212;28;20163;-75
2021/05/28 12:43:54;;;;;;;0.20;0.20;;;19.80;99.90;;;;;;5112270;28;20219;-75
2021/05/28 12:46:22;;;;;;;0.17;0.17;;;19.80;99.90;;;;;;5112296;28;20172;-75
2021/05/28 12:49:00;;;;;;;0.10;0.10;;;20.20;99.90;;;;;;5093961;28;20170;-75
2021/05/28 12:51:36;;;;;;;0.00;0.00;;;20.60;99.90;;;;;;5112323;28;20175;-75
2021/05/28 12:54:15;;;;;;;0.15;0.15;;;20.70;99.90;;;;;;5112347;28;20253;-75
2021/05/28 12:56:42;;;;;;;0.20;0.20;;;20.20;99.90;;;;;;5093876;28;20610;-75